Tobyhanna, PA

1:59 AM EDT on September 03, 2015 (GMT -0400)
Pocono Mountains Municipal | | Change Station
CLOSE
Current Station
Airport
Location: Mt. Pocono,
Elevation: 1916 ft
Nearby Weather Stations

Elev 1916 ft 41.14 °N, 75.38 °W | Updated 6 minutes ago

Clear
Clear
63 °F
Feels Like 63 °F
N
5
Wind Variable Wind from NNW

Today
High -- | Low -- °F
--% Chance of Precip.
Yesterday
High -- | Low -- °F
Precip. -- in
6:29 AM 7:31 PM
Waning Gibbous, 73% visible
Pressure 29.95 in
Visibility 6.0 miles
Clouds Clear
Dew Point 60 °F
Humidity 90%
Rainfall 0.00 in
Snow Depth Not available.
UV 0 out of 12
Pollen 9.50 out of 12
Air Quality Not available.
Flu Activity Not available.
METAR KMPO 030553Z AUTO 33004KT 6SM BR CLR 17/16 A2999 RMK AO2 SLP141 T01720156 10222 20167 58008
Pressure 29.95 in
Visibility 6.0 miles
Clouds Clear
Dew Point 60 °F
Humidity 90%
Rainfall 0.00 in
Snow Depth Not available.
UV 0 out of 12
Pollen 9.50 out of 12
Air Quality Not available.
Flu Activity Not available.
METAR KMPO 030553Z AUTO 33004KT 6SM BR CLR 17/16 A2999 RMK AO2 SLP141 T01720156 10222 20167 58008

10-Day Weather Forecast

×

Almanac

Astronomy

Sep. 03, 2015 Rise Set
Actual Time
Civil Twilight
Nautical Twilight
Astronomical Twilight
Moon
Length of Visible Light
Length of Day
Tomorrow will be .
, % of the Moon is Illuminated

Today's Extremes

State Highs State Lows

Community

WunderPhotos

Upload Photos

1,851,914 photos uploaded!

WunderBlogs® & News

Nearby

Air Quality

  Air Quality AQ Index Pollutant
Not available.

Snow Depth

Station Depth Elevation

Earthquake Activity

City Distance Mag. Time & Date
Minimum magnitude displayed is 2.5.

Coastal Water Temperatures

Place Temperature

Stations

Nearby Weather Stations

Station Location Temp. Windchill Dew Point Humidity Wind Precip. Elev Updated Type